sensor_id;sensor_type;location;lat;lon;timestamp;temperature;humidity
19385;DHT22;9828;54.122;17.974;2023-10-08T00:01:32;10.20;1.00
19385;DHT22;9828;54.122;17.974;2023-10-08T00:06:54;10.10;1.00
19385;DHT22;9828;54.122;17.974;2023-10-08T00:12:17;10.00;1.00
19385;DHT22;9828;54.122;17.974;2023-10-08T00:17:38;9.90;1.00
19385;DHT22;9828;54.122;17.974;2023-10-08T00:22:59;9.80;1.00
19385;DHT22;9828;54.122;17.974;2023-10-08T00:28:23;9.70;1.00
19385;DHT22;9828;54.122;17.974;2023-10-08T00:33:45;9.70;1.00
19385;DHT22;9828;54.122;17.974;2023-10-08T00:39:08;9.70;1.00
19385;DHT22;9828;54.122;17.974;2023-10-08T00:44:35;9.70;1.00
19385;DHT22;9828;54.122;17.974;2023-10-08T00:50:08;9.60;1.00
19385;DHT22;9828;54.122;17.974;2023-10-08T00:55:30;9.50;1.00
19385;DHT22;9828;54.122;17.974;2023-10-08T01:00:55;9.50;1.00
19385;DHT22;9828;54.122;17.974;2023-10-08T01:06:21;9.30;1.00
19385;DHT22;9828;54.122;17.974;2023-10-08T01:11:42;9.30;1.00
19385;DHT22;9828;54.122;17.974;2023-10-08T01:17:10;9.20;1.00
19385;DHT22;9828;54.122;17.974;2023-10-08T01:22:40;9.10;1.00
19385;DHT22;9828;54.122;17.974;2023-10-08T01:28:01;9.10;1.00
19385;DHT22;9828;54.122;17.974;2023-10-08T01:33:30;9.00;1.00
19385;DHT22;9828;54.122;17.974;2023-10-08T01:38:52;8.80;1.00
19385;DHT22;9828;54.122;17.974;2023-10-08T01:44:15;8.70;1.00
19385;DHT22;9828;54.122;17.974;2023-10-08T01:49:38;8.60;1.00
19385;DHT22;9828;54.122;17.974;2023-10-08T01:55:00;8.40;1.00
19385;DHT22;9828;54.122;17.974;2023-10-08T02:00:22;8.40;1.00
19385;DHT22;9828;54.122;17.974;2023-10-08T02:05:45;8.40;1.00
19385;DHT22;9828;54.122;17.974;2023-10-08T02:11:06;8.40;1.00
19385;DHT22;9828;54.122;17.974;2023-10-08T02:16:29;8.40;1.00
19385;DHT22;9828;54.122;17.974;2023-10-08T02:21:50;8.30;1.00
19385;DHT22;9828;54.122;17.974;2023-10-08T02:27:12;8.20;1.00
19385;DHT22;9828;54.122;17.974;2023-10-08T02:32:36;8.20;1.00
19385;DHT22;9828;54.122;17.974;2023-10-08T02:38:03;8.10;1.00
19385;DHT22;9828;54.122;17.974;2023-10-08T02:43:28;8.10;1.00
19385;DHT22;9828;54.122;17.974;2023-10-08T02:48:51;8.00;1.00
19385;DHT22;9828;54.122;17.974;2023-10-08T02:54:14;8.10;1.00
19385;DHT22;9828;54.122;17.974;2023-10-08T02:59:39;8.00;1.00
19385;DHT22;9828;54.122;17.974;2023-10-08T03:05:07;8.10;99.90
19385;DHT22;9828;54.122;17.974;2023-10-08T03:10:29;7.90;1.00
19385;DHT22;9828;54.122;17.974;2023-10-08T03:15:59;8.10;59.40
19385;DHT22;9828;54.122;17.974;2023-10-08T03:21:20;8.00;99.90
19385;DHT22;9828;54.122;17.974;2023-10-08T03:26:44;8.10;99.90
19385;DHT22;9828;54.122;17.974;2023-10-08T03:32:09;8.20;99.90
19385;DHT22;9828;54.122;17.974;2023-10-08T03:37:34;8.10;99.90
19385;DHT22;9828;54.122;17.974;2023-10-08T03:43:02;8.00;99.90
19385;DHT22;9828;54.122;17.974;2023-10-08T03:48:35;8.00;99.90
19385;DHT22;9828;54.122;17.974;2023-10-08T03:53:58;7.90;99.90
19385;DHT22;9828;54.122;17.974;2023-10-08T03:59:31;7.70;1.00
19385;DHT22;9828;54.122;17.974;2023-10-08T04:04:53;7.60;1.00
19385;DHT22;9828;54.122;17.974;2023-10-08T04:10:43;7.60;1.00
19385;DHT22;9828;54.122;17.974;2023-10-08T04:16:04;7.50;1.00
19385;DHT22;9828;54.122;17.974;2023-10-08T04:21:27;7.40;1.00
19385;DHT22;9828;54.122;17.974;2023-10-08T04:26:49;7.40;1.00
19385;DHT22;9828;54.122;17.974;2023-10-08T04:32:12;7.40;1.00
19385;DHT22;9828;54.122;17.974;2023-10-08T04:37:36;7.40;1.00
19385;DHT22;9828;54.122;17.974;2023-10-08T04:43:26;7.30;1.00
19385;DHT22;9828;54.122;17.974;2023-10-08T04:48:48;7.30;1.00
19385;DHT22;9828;54.122;17.974;2023-10-08T04:54:14;7.30;1.00
19385;DHT22;9828;54.122;17.974;2023-10-08T04:59:39;7.20;1.00
19385;DHT22;9828;54.122;17.974;2023-10-08T05:05:32;7.30;1.00
19385;DHT22;9828;54.122;17.974;2023-10-08T05:11:14;7.20;1.00
19385;DHT22;9828;54.122;17.974;2023-10-08T05:17:01;7.20;1.00
19385;DHT22;9828;54.122;17.974;2023-10-08T05:22:30;7.20;1.00
19385;DHT22;9828;54.122;17.974;2023-10-08T05:27:54;7.20;1.00
19385;DHT22;9828;54.122;17.974;2023-10-08T05:33:18;7.30;1.00
19385;DHT22;9828;54.122;17.974;2023-10-08T05:39:08;7.30;1.00
19385;DHT22;9828;54.122;17.974;2023-10-08T05:45:01;7.30;1.00
19385;DHT22;9828;54.122;17.974;2023-10-08T05:50:29;7.30;1.00
19385;DHT22;9828;54.122;17.974;2023-10-08T05:56:05;7.40;1.00
19385;DHT22;9828;54.122;17.974;2023-10-08T06:01:37;7.40;1.00
19385;DHT22;9828;54.122;17.974;2023-10-08T06:07:03;7.60;1.00
19385;DHT22;9828;54.122;17.974;2023-10-08T06:12:37;7.70;1.00
19385;DHT22;9828;54.122;17.974;2023-10-08T06:18:11;7.80;1.00
19385;DHT22;9828;54.122;17.974;2023-10-08T06:23:34;8.00;1.00
19385;DHT22;9828;54.122;17.974;2023-10-08T06:28:56;8.20;1.00
19385;DHT22;9828;54.122;17.974;2023-10-08T06:34:19;8.80;1.00
19385;DHT22;9828;54.122;17.974;2023-10-08T06:39:42;10.20;1.00
19385;DHT22;9828;54.122;17.974;2023-10-08T06:45:09;11.60;1.00
19385;DHT22;9828;54.122;17.974;2023-10-08T06:50:35;12.90;1.00
19385;DHT22;9828;54.122;17.974;2023-10-08T06:55:57;13.70;1.00
19385;DHT22;9828;54.122;17.974;2023-10-08T07:01:19;14.50;1.00
19385;DHT22;9828;54.122;17.974;2023-10-08T07:06:45;15.30;1.00
19385;DHT22;9828;54.122;17.974;2023-10-08T07:12:11;16.20;1.00
19385;DHT22;9828;54.122;17.974;2023-10-08T07:17:35;16.60;99.90
19385;DHT22;9828;54.122;17.974;2023-10-08T07:23:01;16.70;99.90
19385;DHT22;9828;54.122;17.974;2023-10-08T07:28:23;16.90;99.90
19385;DHT22;9828;54.122;17.974;2023-10-08T07:33:48;17.20;99.90
19385;DHT22;9828;54.122;17.974;2023-10-08T07:39:37;17.20;99.90
19385;DHT22;9828;54.122;17.974;2023-10-08T07:45:06;17.60;99.90
19385;DHT22;9828;54.122;17.974;2023-10-08T07:50:28;17.50;99.90
19385;DHT22;9828;54.122;17.974;2023-10-08T07:55:51;17.80;99.90
19385;DHT22;9828;54.122;17.974;2023-10-08T08:01:12;17.70;99.90
19385;DHT22;9828;54.122;17.974;2023-10-08T08:06:36;17.90;99.90
19385;DHT22;9828;54.122;17.974;2023-10-08T08:11:58;18.70;99.90
19385;DHT22;9828;54.122;17.974;2023-10-08T08:17:19;18.50;99.90
19385;DHT22;9828;54.122;17.974;2023-10-08T08:22:40;18.90;99.90
19385;DHT22;9828;54.122;17.974;2023-10-08T08:28:01;18.80;99.90
19385;DHT22;9828;54.122;17.974;2023-10-08T08:33:27;19.00;99.90
19385;DHT22;9828;54.122;17.974;2023-10-08T08:38:56;18.50;99.90
19385;DHT22;9828;54.122;17.974;2023-10-08T08:44:17;18.40;99.90
19385;DHT22;9828;54.122;17.974;2023-10-08T08:49:39;18.40;99.90
19385;DHT22;9828;54.122;17.974;2023-10-08T08:55:01;18.40;99.90
19385;DHT22;9828;54.122;17.974;2023-10-08T09:00:30;18.90;99.90
19385;DHT22;9828;54.122;17.974;2023-10-08T09:05:51;17.80;99.90
19385;DHT22;9828;54.122;17.974;2023-10-08T09:11:16;16.10;99.90
19385;DHT22;9828;54.122;17.974;2023-10-08T09:16:37;15.60;99.90
19385;DHT22;9828;54.122;17.974;2023-10-08T09:22:09;16.40;99.90
19385;DHT22;9828;54.122;17.974;2023-10-08T09:27:36;17.90;99.90
19385;DHT22;9828;54.122;17.974;2023-10-08T09:32:58;18.70;99.90
19385;DHT22;9828;54.122;17.974;2023-10-08T09:38:19;19.00;99.90
19385;DHT22;9828;54.122;17.974;2023-10-08T09:43:46;18.50;99.90
19385;DHT22;9828;54.122;17.974;2023-10-08T09:49:10;18.80;99.90
19385;DHT22;9828;54.122;17.974;2023-10-08T09:54:59;18.40;99.90
19385;DHT22;9828;54.122;17.974;2023-10-08T10:00:26;18.60;99.90
19385;DHT22;9828;54.122;17.974;2023-10-08T10:05:54;19.00;99.90
19385;DHT22;9828;54.122;17.974;2023-10-08T10:11:20;19.40;99.90
19385;DHT22;9828;54.122;17.974;2023-10-08T10:22:42;19.30;99.90
19385;DHT22;9828;54.122;17.974;2023-10-08T10:33:30;19.30;99.90
19385;DHT22;9828;54.122;17.974;2023-10-08T10:38:52;20.00;99.90
19385;DHT22;9828;54.122;17.974;2023-10-08T10:44:15;20.30;99.90
19385;DHT22;9828;54.122;17.974;2023-10-08T10:49:36;20.20;99.90
19385;DHT22;9828;54.122;17.974;2023-10-08T10:55:02;19.60;99.90
19385;DHT22;9828;54.122;17.974;2023-10-08T11:00:36;20.40;99.90
19385;DHT22;9828;54.122;17.974;2023-10-08T11:05:59;20.40;99.90
19385;DHT22;9828;54.122;17.974;2023-10-08T11:11:27;20.20;99.90
19385;DHT22;9828;54.122;17.974;2023-10-08T11:16:49;20.10;99.90
19385;DHT22;9828;54.122;17.974;2023-10-08T11:22:10;19.60;99.90
19385;DHT22;9828;54.122;17.974;2023-10-08T11:27:36;20.00;99.90
19385;DHT22;9828;54.122;17.974;2023-10-08T11:32:59;20.40;99.90
19385;DHT22;9828;54.122;17.974;2023-10-08T11:38:20;20.00;99.90
19385;DHT22;9828;54.122;17.974;2023-10-08T11:43:43;20.10;99.90
19385;DHT22;9828;54.122;17.974;2023-10-08T11:49:05;20.40;99.90
19385;DHT22;9828;54.122;17.974;2023-10-08T11:54:27;21.30;99.90
19385;DHT22;9828;54.122;17.974;2023-10-08T11:59:48;21.30;99.90
19385;DHT22;9828;54.122;17.974;2023-10-08T12:05:09;21.80;99.90
19385;DHT22;9828;54.122;17.974;2023-10-08T12:10:39;21.60;99.90
19385;DHT22;9828;54.122;17.974;2023-10-08T12:16:01;21.30;99.90
19385;DHT22;9828;54.122;17.974;2023-10-08T12:21:33;21.10;99.90
19385;DHT22;9828;54.122;17.974;2023-10-08T12:26:54;21.40;99.90
19385;DHT22;9828;54.122;17.974;2023-10-08T12:32:16;20.70;99.90
19385;DHT22;9828;54.122;17.974;2023-10-08T12:37:40;20.40;99.90
19385;DHT22;9828;54.122;17.974;2023-10-08T12:43:01;20.90;99.90
19385;DHT22;9828;54.122;17.974;2023-10-08T12:48:26;20.40;99.90
19385;DHT22;9828;54.122;17.974;2023-10-08T12:53:48;20.20;99.90
19385;DHT22;9828;54.122;17.974;2023-10-08T12:59:19;19.30;99.90
19385;DHT22;9828;54.122;17.974;2023-10-08T13:04:44;19.10;99.90
19385;DHT22;9828;54.122;17.974;2023-10-08T13:10:07;19.20;99.90
19385;DHT22;9828;54.122;17.974;2023-10-08T13:15:28;18.90;99.90
19385;DHT22;9828;54.122;17.974;2023-10-08T13:20:50;19.00;99.90
19385;DHT22;9828;54.122;17.974;2023-10-08T13:26:12;19.30;99.90
19385;DHT22;9828;54.122;17.974;2023-10-08T13:31:37;19.30;99.90
19385;DHT22;9828;54.122;17.974;2023-10-08T13:36:59;18.50;99.90
19385;DHT22;9828;54.122;17.974;2023-10-08T13:42:20;17.60;99.90
19385;DHT22;9828;54.122;17.974;2023-10-08T13:47:41;18.00;99.90
19385;DHT22;9828;54.122;17.974;2023-10-08T13:53:03;17.60;99.90
19385;DHT22;9828;54.122;17.974;2023-10-08T13:58:24;17.90;99.90
19385;DHT22;9828;54.122;17.974;2023-10-08T14:03:49;17.30;99.90
19385;DHT22;9828;54.122;17.974;2023-10-08T14:14:42;15.70;1.00
19385;DHT22;9828;54.122;17.974;2023-10-08T14:20:07;14.90;1.00
19385;DHT22;9828;54.122;17.974;2023-10-08T14:25:34;14.20;1.00
19385;DHT22;9828;54.122;17.974;2023-10-08T14:31:03;13.90;1.00
19385;DHT22;9828;54.122;17.974;2023-10-08T14:36:24;13.70;1.00
19385;DHT22;9828;54.122;17.974;2023-10-08T14:42:04;13.50;1.00
19385;DHT22;9828;54.122;17.974;2023-10-08T14:47:45;13.20;1.00
19385;DHT22;9828;54.122;17.974;2023-10-08T14:53:06;13.10;1.00
19385;DHT22;9828;54.122;17.974;2023-10-08T14:58:27;12.90;1.00
19385;DHT22;9828;54.122;17.974;2023-10-08T15:03:49;12.80;1.00
19385;DHT22;9828;54.122;17.974;2023-10-08T15:09:10;12.70;1.00
19385;DHT22;9828;54.122;17.974;2023-10-08T15:14:39;12.40;1.00
19385;DHT22;9828;54.122;17.974;2023-10-08T15:20:03;12.20;1.00
19385;DHT22;9828;54.122;17.974;2023-10-08T15:25:24;12.00;1.00
19385;DHT22;9828;54.122;17.974;2023-10-08T15:30:46;11.80;1.00
19385;DHT22;9828;54.122;17.974;2023-10-08T15:36:07;11.70;1.00
19385;DHT22;9828;54.122;17.974;2023-10-08T15:41:28;11.60;1.00
19385;DHT22;9828;54.122;17.974;2023-10-08T15:46:49;11.60;1.00
19385;DHT22;9828;54.122;17.974;2023-10-08T15:52:11;11.40;1.00
19385;DHT22;9828;54.122;17.974;2023-10-08T15:57:35;11.40;1.00
19385;DHT22;9828;54.122;17.974;2023-10-08T16:02:56;11.30;1.00
19385;DHT22;9828;54.122;17.974;2023-10-08T16:08:17;11.20;1.00
19385;DHT22;9828;54.122;17.974;2023-10-08T16:13:38;11.20;1.00
19385;DHT22;9828;54.122;17.974;2023-10-08T16:19:01;11.10;1.00
19385;DHT22;9828;54.122;17.974;2023-10-08T16:24:22;11.00;1.00
19385;DHT22;9828;54.122;17.974;2023-10-08T16:29:46;11.00;1.00
19385;DHT22;9828;54.122;17.974;2023-10-08T16:35:08;10.90;1.00
19385;DHT22;9828;54.122;17.974;2023-10-08T16:40:29;10.80;1.00
19385;DHT22;9828;54.122;17.974;2023-10-08T16:45:51;10.70;1.00
19385;DHT22;9828;54.122;17.974;2023-10-08T16:51:12;10.70;1.00
19385;DHT22;9828;54.122;17.974;2023-10-08T16:56:35;10.60;1.00
19385;DHT22;9828;54.122;17.974;2023-10-08T17:01:56;10.50;1.00
19385;DHT22;9828;54.122;17.974;2023-10-08T17:07:19;10.40;1.00
19385;DHT22;9828;54.122;17.974;2023-10-08T17:12:40;10.30;1.00
19385;DHT22;9828;54.122;17.974;2023-10-08T17:18:01;10.20;1.00
19385;DHT22;9828;54.122;17.974;2023-10-08T17:23:23;10.10;1.00
19385;DHT22;9828;54.122;17.974;2023-10-08T17:28:44;10.10;1.00
19385;DHT22;9828;54.122;17.974;2023-10-08T17:39:27;9.80;1.00
19385;DHT22;9828;54.122;17.974;2023-10-08T17:44:48;9.80;99.60
19385;DHT22;9828;54.122;17.974;2023-10-08T17:50:10;9.80;1.00
19385;DHT22;9828;54.122;17.974;2023-10-08T17:55:31;9.70;1.00
19385;DHT22;9828;54.122;17.974;2023-10-08T18:00:54;9.50;99.90
19385;DHT22;9828;54.122;17.974;2023-10-08T18:06:15;9.40;99.90
19385;DHT22;9828;54.122;17.974;2023-10-08T18:11:37;9.40;1.00
19385;DHT22;9828;54.122;17.974;2023-10-08T18:17:05;9.40;1.00
19385;DHT22;9828;54.122;17.974;2023-10-08T18:22:26;9.30;1.00
19385;DHT22;9828;54.122;17.974;2023-10-08T18:27:48;9.20;1.00
19385;DHT22;9828;54.122;17.974;2023-10-08T18:33:09;9.30;1.00
19385;DHT22;9828;54.122;17.974;2023-10-08T18:38:30;9.20;1.00
19385;DHT22;9828;54.122;17.974;2023-10-08T18:43:54;9.10;1.00
19385;DHT22;9828;54.122;17.974;2023-10-08T18:49:16;9.00;1.00
19385;DHT22;9828;54.122;17.974;2023-10-08T18:54:38;8.80;1.00
19385;DHT22;9828;54.122;17.974;2023-10-08T19:00:01;8.90;1.00
19385;DHT22;9828;54.122;17.974;2023-10-08T19:05:29;8.80;1.00
19385;DHT22;9828;54.122;17.974;2023-10-08T19:10:51;8.60;1.00
19385;DHT22;9828;54.122;17.974;2023-10-08T19:16:12;8.40;1.00
19385;DHT22;9828;54.122;17.974;2023-10-08T19:21:36;8.30;1.00
19385;DHT22;9828;54.122;17.974;2023-10-08T19:27:00;8.20;1.00
19385;DHT22;9828;54.122;17.974;2023-10-08T19:32:22;8.20;1.00
19385;DHT22;9828;54.122;17.974;2023-10-08T19:37:43;8.20;1.00
19385;DHT22;9828;54.122;17.974;2023-10-08T19:43:05;8.20;1.00
19385;DHT22;9828;54.122;17.974;2023-10-08T19:48:26;8.20;1.00
19385;DHT22;9828;54.122;17.974;2023-10-08T19:53:48;8.10;1.00
19385;DHT22;9828;54.122;17.974;2023-10-08T19:59:11;8.10;1.00
19385;DHT22;9828;54.122;17.974;2023-10-08T20:04:33;8.00;1.00
19385;DHT22;9828;54.122;17.974;2023-10-08T20:09:54;8.00;1.00
19385;DHT22;9828;54.122;17.974;2023-10-08T20:15:15;8.00;1.00
19385;DHT22;9828;54.122;17.974;2023-10-08T20:20:39;7.90;1.00
19385;DHT22;9828;54.122;17.974;2023-10-08T20:31:32;7.90;1.00
19385;DHT22;9828;54.122;17.974;2023-10-08T20:36:56;7.90;1.00
19385;DHT22;9828;54.122;17.974;2023-10-08T20:42:18;7.80;3.60
19385;DHT22;9828;54.122;17.974;2023-10-08T20:47:41;7.60;1.00
19385;DHT22;9828;54.122;17.974;2023-10-08T20:53:02;7.70;1.00
19385;DHT22;9828;54.122;17.974;2023-10-08T20:58:23;7.70;1.00
19385;DHT22;9828;54.122;17.974;2023-10-08T21:03:48;7.60;1.00
19385;DHT22;9828;54.122;17.974;2023-10-08T21:09:09;7.60;1.00
19385;DHT22;9828;54.122;17.974;2023-10-08T21:14:36;7.50;1.00
19385;DHT22;9828;54.122;17.974;2023-10-08T21:19:57;7.50;1.00
19385;DHT22;9828;54.122;17.974;2023-10-08T21:25:20;7.50;1.00
19385;DHT22;9828;54.122;17.974;2023-10-08T21:30:41;7.40;1.00
19385;DHT22;9828;54.122;17.974;2023-10-08T21:36:03;7.40;1.00
19385;DHT22;9828;54.122;17.974;2023-10-08T21:41:24;7.30;1.00
19385;DHT22;9828;54.122;17.974;2023-10-08T21:46:46;7.10;1.00
19385;DHT22;9828;54.122;17.974;2023-10-08T21:52:06;7.10;1.00
19385;DHT22;9828;54.122;17.974;2023-10-08T21:57:28;7.10;1.00
19385;DHT22;9828;54.122;17.974;2023-10-08T22:02:54;7.10;1.00
19385;DHT22;9828;54.122;17.974;2023-10-08T22:08:18;7.00;1.00
19385;DHT22;9828;54.122;17.974;2023-10-08T22:13:43;7.00;1.00
19385;DHT22;9828;54.122;17.974;2023-10-08T22:19:07;7.00;1.00
19385;DHT22;9828;54.122;17.974;2023-10-08T22:24:30;7.00;1.00
19385;DHT22;9828;54.122;17.974;2023-10-08T22:29:52;7.00;1.00
19385;DHT22;9828;54.122;17.974;2023-10-08T22:35:15;7.00;1.00
19385;DHT22;9828;54.122;17.974;2023-10-08T22:40:36;6.90;1.00
19385;DHT22;9828;54.122;17.974;2023-10-08T22:46:21;7.00;1.00
19385;DHT22;9828;54.122;17.974;2023-10-08T22:51:46;6.90;1.00
19385;DHT22;9828;54.122;17.974;2023-10-08T22:57:10;6.90;1.00
19385;DHT22;9828;54.122;17.974;2023-10-08T23:02:31;7.00;1.00
19385;DHT22;9828;54.122;17.974;2023-10-08T23:07:53;7.00;1.00
19385;DHT22;9828;54.122;17.974;2023-10-08T23:13:14;7.00;1.00
19385;DHT22;9828;54.122;17.974;2023-10-08T23:18:36;7.00;1.00
19385;DHT22;9828;54.122;17.974;2023-10-08T23:23:57;7.10;1.00
19385;DHT22;9828;54.122;17.974;2023-10-08T23:29:18;7.10;1.00
19385;DHT22;9828;54.122;17.974;2023-10-08T23:34:40;7.20;1.00
19385;DHT22;9828;54.122;17.974;2023-10-08T23:40:06;7.20;1.00
19385;DHT22;9828;54.122;17.974;2023-10-08T23:45:45;7.20;1.00
19385;DHT22;9828;54.122;17.974;2023-10-08T23:51:15;7.10;1.00
19385;DHT22;9828;54.122;17.974;2023-10-08T23:56:38;7.00;1.00
